createdAt,value
2022-11-10T00:02:09.808Z,2.08
2022-11-10T00:07:12.634Z,2.00
2022-11-10T00:12:15.509Z,2.13
2022-11-10T00:17:19.599Z,2.80
2022-11-10T00:22:25.923Z,2.40
2022-11-10T00:27:28.917Z,2.30
2022-11-10T00:32:33.179Z,2.53
2022-11-10T00:37:35.916Z,2.80
2022-11-10T00:42:38.654Z,2.72
2022-11-10T00:47:42.707Z,2.97
2022-11-10T00:52:45.434Z,3.08
2022-11-10T00:57:48.151Z,3.17
2022-11-10T01:02:52.228Z,3.17
2022-11-10T01:07:54.963Z,3.00
2022-11-10T01:12:57.690Z,3.10
2022-11-10T01:18:01.769Z,2.08
2022-11-10T01:23:04.529Z,2.93
2022-11-10T01:28:07.235Z,2.65
2022-11-10T01:33:11.293Z,2.70
2022-11-10T01:38:14.006Z,2.90
2022-11-10T01:43:16.739Z,2.70
2022-11-10T01:48:31.025Z,2.20
2022-11-10T01:53:37.767Z,2.47
2022-11-10T01:58:44.287Z,2.90
2022-11-10T02:03:51.364Z,3.00
2022-11-10T02:08:55.689Z,2.70
2022-11-10T02:13:58.940Z,2.70
2022-11-10T02:19:15.974Z,3.35
2022-11-10T02:24:20.300Z,3.72
2022-11-10T02:29:24.480Z,4.10
2022-11-10T02:34:27.213Z,3.95
2022-11-10T02:39:31.429Z,4.10
2022-11-10T02:44:34.150Z,4.03
2022-11-10T02:49:36.870Z,4.60
2022-11-10T02:54:40.985Z,4.55
2022-11-10T02:59:43.709Z,4.53
2022-11-10T03:04:46.430Z,4.97
2022-11-10T03:09:50.552Z,4.32
2022-11-10T03:14:53.263Z,4.80
2022-11-10T03:19:55.974Z,4.83
2022-11-10T03:25:00.273Z,5.07
2022-11-10T03:30:03.047Z,5.20
2022-11-10T03:35:06.192Z,4.83
2022-11-10T03:40:11.637Z,5.43
2022-11-10T03:45:16.082Z,5.25
2022-11-10T03:50:19.077Z,5.05
2022-11-10T03:55:23.156Z,4.73
2022-11-10T04:00:25.897Z,4.97
2022-11-10T04:05:46.220Z,4.93
2022-11-10T04:10:50.872Z,5.17
2022-11-10T04:15:53.929Z,5.10
2022-11-10T04:20:58.127Z,5.30
2022-11-10T04:26:21.841Z,5.27
2022-11-10T04:31:26.410Z,5.20
2022-11-10T04:36:31.249Z,5.65
2022-11-10T04:41:36.112Z,5.80
2022-11-10T04:46:40.865Z,6.00
2022-11-10T04:51:43.700Z,6.50
2022-11-10T04:56:47.823Z,6.50
2022-11-10T05:01:50.564Z,7.10
2022-11-10T05:06:53.923Z,6.93
2022-11-10T05:11:58.054Z,6.65
2022-11-10T05:17:00.764Z,6.90
2022-11-10T05:22:03.487Z,6.70
2022-11-10T05:27:08.403Z,6.55
2022-11-10T05:32:11.131Z,6.05
2022-11-10T05:37:13.860Z,6.73
2022-11-10T05:42:17.916Z,6.57
2022-11-10T05:47:20.644Z,6.70
2022-11-10T05:52:23.359Z,7.10
2022-11-10T05:57:27.445Z,7.57
2022-11-10T06:02:30.184Z,6.57
2022-11-10T06:07:32.986Z,7.03
2022-11-10T06:12:37.575Z,7.80
2022-11-10T06:17:40.314Z,7.15
2022-11-10T06:22:43.119Z,7.13
2022-11-10T06:27:47.184Z,7.10
2022-11-10T06:32:50.018Z,7.28
2022-11-10T06:38:00.266Z,7.03
2022-11-10T06:43:04.377Z,6.40
2022-11-10T06:48:09.261Z,6.38
2022-11-10T06:53:13.508Z,7.28
2022-11-10T06:58:18.239Z,7.43
2022-11-10T07:03:21.232Z,7.17
2022-11-10T07:08:24.213Z,7.00
2022-11-10T07:13:28.292Z,7.10
2022-11-10T07:18:31.021Z,6.07
2022-11-10T07:23:35.045Z,6.47
2022-11-10T07:28:39.191Z,6.57
2022-11-10T07:33:43.628Z,5.90
2022-11-10T07:38:46.501Z,6.45
2022-11-10T07:43:50.679Z,6.15
2022-11-10T07:48:54.250Z,6.40
2022-11-10T07:53:57.275Z,6.87
2022-11-10T07:59:01.370Z,6.70
2022-11-10T08:04:04.178Z,6.70
2022-11-10T08:09:07.035Z,6.80
2022-11-10T08:14:11.247Z,7.70
2022-11-10T08:19:14.318Z,7.32
2022-11-10T08:24:17.043Z,7.90
2022-11-10T08:29:21.210Z,7.80
2022-11-10T08:34:24.263Z,8.70
2022-11-10T08:39:38.744Z,8.53
2022-11-10T08:44:43.842Z,8.47
2022-11-10T08:49:46.611Z,8.23
2022-11-10T08:54:49.339Z,7.90
2022-11-10T08:59:53.432Z,8.10
2022-11-10T09:04:56.260Z,7.75
2022-11-10T09:10:07.397Z,7.50
2022-11-10T09:15:12.865Z,7.53
2022-11-10T09:20:15.901Z,7.57
2022-11-10T09:25:18.878Z,7.32
2022-11-10T09:30:23.526Z,6.60
2022-11-10T09:35:26.387Z,6.33
2022-11-10T09:40:38.292Z,6.57
2022-11-10T09:45:48.273Z,6.90
2022-11-10T09:50:56.450Z,6.47
2022-11-10T09:56:03.322Z,6.70
2022-11-10T10:01:23.821Z,6.30
2022-11-10T10:06:33.957Z,5.50
2022-11-10T10:11:57.942Z,6.22
2022-11-10T10:17:14.206Z,6.18
2022-11-10T10:22:43.301Z,6.27
2022-11-10T10:27:51.022Z,5.67
2022-11-10T10:33:01.198Z,5.53
2022-11-10T10:38:05.920Z,5.63
2022-11-10T10:43:08.657Z,5.30
2022-11-10T10:48:29.700Z,5.10
2022-11-10T10:53:32.466Z,4.95
2022-11-10T10:58:38.073Z,4.80
2022-11-10T11:03:45.094Z,4.93
2022-11-10T11:09:00.311Z,4.72
2022-11-10T11:14:15.575Z,4.80
2022-11-10T11:19:21.578Z,3.90
2022-11-10T11:24:34.182Z,4.55
2022-11-10T11:29:47.574Z,4.18
2022-11-10T11:35:01.342Z,4.43
2022-11-10T11:40:20.001Z,4.90
2022-11-10T11:45:33.083Z,4.35
2022-11-10T11:50:44.583Z,4.93
2022-11-10T11:56:04.522Z,4.50
2022-11-10T12:01:20.276Z,4.45
2022-11-10T12:06:36.625Z,4.37
2022-11-10T12:11:56.131Z,3.90
2022-11-10T12:17:07.854Z,4.55
2022-11-10T12:22:22.332Z,4.35
2022-11-10T12:27:29.120Z,4.17
2022-11-10T12:32:38.691Z,4.72
2022-11-10T12:37:47.618Z,4.32
2022-11-10T12:42:58.025Z,4.63
2022-11-10T12:48:02.202Z,4.43
2022-11-10T12:53:14.482Z,4.28
2022-11-10T12:58:17.508Z,5.10
2022-11-10T13:03:28.349Z,4.60
2022-11-10T13:08:36.847Z,4.88
2022-11-10T13:13:46.485Z,5.00
2022-11-10T13:18:57.981Z,4.80
2022-11-10T13:24:25.182Z,5.22
2022-11-10T13:29:32.165Z,4.40
2022-11-10T13:34:36.305Z,4.60
2022-11-10T13:39:41.169Z,4.30
2022-11-10T13:44:44.361Z,5.13
2022-11-10T13:49:58.555Z,4.60
2022-11-10T13:55:20.110Z,4.47
2022-11-10T14:00:27.120Z,4.53
2022-11-10T14:06:07.372Z,4.45
2022-11-10T14:11:36.336Z,3.90
2022-11-10T14:16:43.111Z,4.50
2022-11-10T14:21:55.410Z,4.72
2022-11-10T14:27:08.625Z,5.27
2022-11-10T14:32:18.750Z,4.55
2022-11-10T14:37:24.445Z,4.72
2022-11-10T14:42:31.513Z,4.50
2022-11-10T14:47:35.876Z,4.57
2022-11-10T14:52:40.780Z,4.97
2022-11-10T14:57:48.802Z,4.70
2022-11-10T15:02:52.465Z,4.70
2022-11-10T15:07:56.628Z,4.60
2022-11-10T15:13:03.267Z,5.40
2022-11-10T15:18:07.125Z,5.00
2022-11-10T15:23:23.052Z,4.72
2022-11-10T15:28:31.783Z,5.00
2022-11-10T15:33:36.909Z,4.87
2022-11-10T15:38:39.705Z,5.70
2022-11-10T15:43:43.870Z,5.20
2022-11-10T15:48:49.570Z,5.22
2022-11-10T15:53:53.380Z,6.83
2022-11-10T15:59:02.154Z,20.02
2022-11-10T16:04:05.587Z,16.33
2022-11-10T16:09:08.862Z,17.90
2022-11-10T16:14:16.545Z,6.95
2022-11-10T16:19:19.319Z,5.80
2022-11-10T16:24:22.038Z,5.43
2022-11-10T16:29:26.256Z,5.97
2022-11-10T16:34:28.994Z,6.28
2022-11-10T16:39:32.034Z,6.32
2022-11-10T16:44:41.292Z,5.30
2022-11-10T16:49:46.196Z,5.35
2022-11-10T16:54:48.931Z,5.40
2022-11-10T16:59:53.790Z,5.97
2022-11-10T17:04:56.730Z,5.63
2022-11-10T17:10:00.988Z,5.30
2022-11-10T17:15:05.802Z,5.40
2022-11-10T17:20:10.202Z,5.10
2022-11-10T17:25:20.913Z,5.20
2022-11-10T17:30:25.397Z,4.47
2022-11-10T17:35:28.342Z,4.00
2022-11-10T17:40:31.259Z,4.20
2022-11-10T17:45:35.368Z,3.88
2022-11-10T17:50:39.524Z,4.43
2022-11-10T17:55:42.227Z,3.72
2022-11-10T18:00:47.152Z,3.67
2022-11-10T18:05:50.300Z,3.37
2022-11-10T18:10:54.106Z,3.73
2022-11-10T18:16:00.752Z,4.07
2022-11-10T18:21:03.713Z,3.60
2022-11-10T18:26:08.220Z,3.30
2022-11-10T18:31:14.245Z,3.65
2022-11-10T18:36:17.064Z,3.70
2022-11-10T18:41:37.258Z,3.87
2022-11-10T18:46:41.463Z,3.55
2022-11-10T18:51:44.231Z,2.80
2022-11-10T18:56:47.034Z,2.77
2022-11-10T19:01:51.341Z,3.10
2022-11-10T19:06:54.123Z,2.83
2022-11-10T19:11:56.883Z,3.03
2022-11-10T19:17:00.987Z,2.90
2022-11-10T19:22:03.723Z,2.92
2022-11-10T19:27:07.356Z,3.35
2022-11-10T19:32:11.427Z,3.80
2022-11-10T19:37:14.143Z,3.03
2022-11-10T19:42:16.951Z,3.20
2022-11-10T19:47:21.065Z,3.10
2022-11-10T19:52:23.871Z,2.93
2022-11-10T19:57:27.973Z,3.05
2022-11-10T20:02:32.082Z,2.80
2022-11-10T20:07:52.099Z,2.53
2022-11-10T20:12:54.825Z,2.53
2022-11-10T20:17:58.920Z,3.05
2022-11-10T20:23:02.861Z,2.93
2022-11-10T20:28:07.011Z,2.47
2022-11-10T20:33:11.212Z,2.70
2022-11-10T20:38:15.922Z,2.43
2022-11-10T20:43:18.663Z,2.70
2022-11-10T20:48:22.832Z,2.60
2022-11-10T20:53:26.060Z,3.53
2022-11-10T20:58:29.569Z,2.80
2022-11-10T21:03:34.445Z,2.20
2022-11-10T21:08:37.295Z,2.40
2022-11-10T21:13:40.090Z,2.47
2022-11-10T21:18:44.156Z,2.42
2022-11-10T21:23:46.892Z,2.60
2022-11-10T21:28:49.614Z,2.40
2022-11-10T21:33:55.802Z,2.90
2022-11-10T21:38:59.126Z,2.60
2022-11-10T21:44:01.873Z,2.80
2022-11-10T21:49:07.936Z,2.50
2022-11-10T21:54:12.245Z,2.90
2022-11-10T21:59:15.005Z,2.90
2022-11-10T22:04:19.112Z,2.60
2022-11-10T22:09:35.734Z,2.45
2022-11-10T22:14:55.982Z,3.00
2022-11-10T22:20:00.167Z,2.70
2022-11-10T22:25:02.898Z,2.67
2022-11-10T22:30:06.456Z,2.67
2022-11-10T22:35:32.111Z,2.60
2022-11-10T22:40:54.062Z,2.10
2022-11-10T22:45:56.786Z,2.50
2022-11-10T22:51:01.479Z,2.78
2022-11-10T22:56:04.342Z,2.60
2022-11-10T23:01:08.457Z,2.30
2022-11-10T23:06:12.879Z,2.05
2022-11-10T23:11:20.149Z,1.80
2022-11-10T23:16:25.259Z,2.10
2022-11-10T23:21:31.094Z,1.83
2022-11-10T23:26:34.879Z,1.88
2022-11-10T23:31:37.679Z,1.70
2022-11-10T23:36:41.941Z,2.00
2022-11-10T23:41:44.674Z,1.85
2022-11-10T23:46:47.393Z,2.23
2022-11-10T23:51:51.532Z,1.90
2022-11-10T23:56:54.259Z,2.10
